Time;durP1;ratioP1;P1;durP2;ratioP2;P2;SDS_P1;SDS_P2;PMS_P1;PMS_P2;Temp;Humidity;BMP_temperature;BMP_pressure;BME280_temperature;BME280_humidity;BME280_pressure;Samples;Min_cycle;Max_cycle;Signal;HPM_P1;HPM_P2
2020/12/12 00:08:01;;;;;;;6.50;3.90;;;4.90;99.90;;;;;;6720452;88;20659;-77
2020/12/12 00:18:02;;;;;;;8.02;4.37;;;5.00;99.90;;;;;;6726294;88;20716;-77
2020/12/12 00:28:02;;;;;;;8.45;4.78;;;5.00;99.90;;;;;;6719391;88;20271;-76
2020/12/12 00:38:03;;;;;;;7.82;4.32;;;5.00;99.90;;;;;;6725003;88;20186;-76
2020/12/12 00:48:03;;;;;;;9.38;5.07;;;4.90;99.90;;;;;;6723283;88;20722;-77
2020/12/12 00:58:04;;;;;;;9.43;4.80;;;4.90;99.90;;;;;;6721152;88;20641;-76
2020/12/12 01:08:04;;;;;;;8.10;5.00;;;4.90;99.90;;;;;;6728398;88;20319;-76
2020/12/12 01:18:05;;;;;;;7.97;4.90;;;5.00;99.90;;;;;;6712075;88;20206;-77
2020/12/12 01:28:06;;;;;;;9.83;4.83;;;5.00;99.90;;;;;;6713998;88;20483;-77
2020/12/12 01:38:07;;;;;;;8.10;4.40;;;5.10;99.90;;;;;;6749519;77;20594;-73
2020/12/12 01:48:08;;;;;;;8.43;4.72;;;5.20;99.90;;;;;;6751705;87;20200;-74
2020/12/12 01:58:09;;;;;;;7.90;4.40;;;5.30;99.90;;;;;;6751181;87;20223;-72
2020/12/12 02:08:12;;;;;;;7.65;4.10;;;5.20;99.90;;;;;;6751920;87;20250;-73
2020/12/12 02:18:25;;;;;;;8.13;4.30;;;5.30;99.90;;;;;;6751447;87;20215;-73
2020/12/12 02:28:30;;;;;;;8.20;4.37;;;5.40;99.90;;;;;;6758112;87;20196;-72
2020/12/12 02:38:31;;;;;;;7.57;4.45;;;5.40;99.90;;;;;;6751238;87;20188;-73
2020/12/12 02:48:31;;;;;;;7.75;4.37;;;5.40;99.90;;;;;;6749305;87;20263;-73
2020/12/12 02:58:32;;;;;;;9.70;5.03;;;5.50;99.90;;;;;;6750322;87;20180;-72
2020/12/12 03:08:32;;;;;;;9.75;5.00;;;5.50;99.90;;;;;;6750438;87;20180;-72
2020/12/12 03:18:33;;;;;;;10.00;5.37;;;5.60;99.90;;;;;;6754507;87;20214;-72
2020/12/12 03:28:33;;;;;;;10.60;5.00;;;5.60;99.90;;;;;;6754837;87;20672;-73
2020/12/12 03:38:34;;;;;;;9.27;5.35;;;5.60;99.90;;;;;;6751238;87;20766;-73
2020/12/12 03:48:34;;;;;;;8.20;4.97;;;5.60;99.90;;;;;;6754179;87;20313;-73
2020/12/12 03:58:35;;;;;;;8.68;5.12;;;5.70;99.90;;;;;;6753461;87;20223;-73
2020/12/12 04:08:35;;;;;;;12.30;5.00;;;5.70;99.90;;;;;;6752452;87;20192;-72
2020/12/12 04:18:36;;;;;;;8.27;4.97;;;5.70;99.90;;;;;;6753106;87;20232;-72
2020/12/12 04:28:37;;;;;;;10.15;5.75;;;5.70;99.90;;;;;;6751192;87;20179;-72
2020/12/12 04:38:38;;;;;;;9.35;5.57;;;5.60;99.90;;;;;;6748692;87;20306;-72
2020/12/12 04:48:40;;;;;;;9.73;5.68;;;5.70;99.90;;;;;;6751718;87;20199;-72
2020/12/12 04:58:42;;;;;;;10.43;5.90;;;5.70;99.90;;;;;;6750325;87;20529;-72
2020/12/12 05:08:42;;;;;;;10.00;4.75;;;5.70;99.90;;;;;;6751703;87;20189;-73
2020/12/12 05:18:43;;;;;;;8.98;4.75;;;5.70;99.90;;;;;;6752452;87;20193;-71
2020/12/12 05:28:45;;;;;;;10.48;5.50;;;5.80;99.90;;;;;;6746552;87;20204;-72
2020/12/12 05:38:56;;;;;;;9.00;4.72;;;5.80;99.90;;;;;;6750849;87;20181;-72
2020/12/12 05:48:57;;;;;;;8.73;5.22;;;5.90;99.90;;;;;;6750695;87;20181;-73
2020/12/12 05:58:58;;;;;;;8.80;5.05;;;5.80;99.90;;;;;;6749568;87;20203;-73
2020/12/12 06:09:06;;;;;;;8.85;5.07;;;5.90;99.90;;;;;;6747921;87;20196;-73
2020/12/12 06:19:17;;;;;;;9.60;5.45;;;5.90;99.90;;;;;;6747846;87;20181;-73
2020/12/12 06:29:18;;;;;;;10.52;6.18;;;6.00;99.90;;;;;;6749566;87;20197;-73
2020/12/12 06:39:25;;;;;;;9.35;5.40;;;6.00;99.90;;;;;;6747978;87;20196;-73
2020/12/12 06:49:26;;;;;;;10.65;6.28;;;6.00;99.90;;;;;;6749251;87;21074;-73
2020/12/12 06:59:30;;;;;;;10.40;6.10;;;6.00;99.90;;;;;;6750411;87;20187;-73
2020/12/12 07:09:31;;;;;;;10.07;5.80;;;6.00;99.90;;;;;;6748894;87;20768;-73
2020/12/12 07:19:39;;;;;;;11.70;6.40;;;6.00;99.90;;;;;;6746298;87;20238;-73
2020/12/12 07:29:40;;;;;;;12.20;7.12;;;6.10;99.90;;;;;;6740774;88;20746;-73
2020/12/12 07:39:42;;;;;;;11.95;6.72;;;5.90;99.90;;;;;;6740520;77;20348;-75
2020/12/12 07:49:42;;;;;;;13.68;7.87;;;5.80;99.90;;;;;;6742828;88;20338;-76
2020/12/12 07:59:43;;;;;;;13.50;7.30;;;5.80;99.90;;;;;;6751183;88;20194;-75
2020/12/12 08:09:51;;;;;;;16.20;7.22;;;5.90;99.90;;;;;;6745740;88;20506;-75
2020/12/12 08:19:52;;;;;;;13.52;7.78;;;5.90;99.90;;;;;;6743632;88;20720;-75
2020/12/12 08:29:58;;;;;;;14.93;8.10;;;6.00;99.90;;;;;;6739013;88;20250;-75
2020/12/12 08:40:08;;;;;;;14.13;8.02;;;6.00;99.90;;;;;;6739549;88;20613;-75
2020/12/12 08:50:09;;;;;;;16.30;8.55;;;6.10;99.90;;;;;;6754317;88;20212;-77
2020/12/12 09:00:10;;;;;;;16.95;9.30;;;6.10;99.90;;;;;;6753910;88;20189;-76
2020/12/12 09:10:12;;;;;;;20.65;10.25;;;6.10;99.90;;;;;;6747581;88;20412;-78
2020/12/12 09:20:13;;;;;;;19.15;10.18;;;6.10;99.90;;;;;;6749045;88;20262;-77
2020/12/12 09:30:14;;;;;;;21.77;11.07;;;6.10;99.90;;;;;;6757996;88;20355;-77
2020/12/12 09:40:14;;;;;;;24.77;11.88;;;6.10;99.90;;;;;;6766721;88;20196;-76
2020/12/12 09:50:15;;;;;;;22.98;11.38;;;6.10;99.90;;;;;;6742560;88;20232;-76
2020/12/12 10:00:15;;;;;;;24.05;12.07;;;6.20;99.90;;;;;;6734814;88;20185;-77
2020/12/12 10:10:16;;;;;;;25.30;12.20;;;6.20;99.90;;;;;;6739629;88;20230;-76
2020/12/12 10:20:17;;;;;;;25.10;12.55;;;6.20;99.90;;;;;;6740060;88;20173;-76
2020/12/12 10:30:18;;;;;;;30.42;13.30;;;6.30;99.90;;;;;;6736401;88;20879;-74
2020/12/12 10:50:19;;;;;;;25.02;12.30;;;6.40;99.90;;;;;;6744143;88;20310;-76
2020/12/12 11:00:25;;;;;;;26.20;12.60;;;6.50;99.90;;;;;;6735858;88;20311;-76
2020/12/12 11:10:25;;;;;;;24.30;11.67;;;6.60;99.90;;;;;;6736529;88;20494;-76
2020/12/12 11:20:26;;;;;;;27.73;13.60;;;6.60;99.90;;;;;;6727612;88;20735;-74
2020/12/12 11:30:26;;;;;;;25.42;12.07;;;6.70;99.90;;;;;;6725585;88;20494;-73
2020/12/12 11:40:43;;;;;;;25.02;12.43;;;6.70;99.90;;;;;;6729948;88;20219;-74
2020/12/12 11:50:44;;;;;;;28.35;13.55;;;6.70;99.90;;;;;;6740813;88;20184;-77
2020/12/12 12:00:44;;;;;;;28.00;13.30;;;6.90;99.90;;;;;;6742131;88;20212;-77
2020/12/12 12:10:55;;;;;;;32.88;14.13;;;6.90;99.90;;;;;;6741348;88;20230;-77
2020/12/12 12:20:57;;;;;;;29.75;12.90;;;7.00;99.90;;;;;;6735994;88;20195;-76
2020/12/12 12:30:58;;;;;;;27.40;12.88;;;7.10;99.90;;;;;;6733172;88;20208;-74
2020/12/12 12:40:58;;;;;;;25.37;13.00;;;7.30;99.90;;;;;;6736889;88;20198;-74
2020/12/12 12:50:59;;;;;;;21.40;11.80;;;7.50;99.90;;;;;;6732961;88;20781;-73
2020/12/12 13:00:59;;;;;;;21.45;11.20;;;7.80;99.90;;;;;;6735594;88;20644;-74
2020/12/12 13:11:00;;;;;;;22.20;11.10;;;7.90;99.90;;;;;;6737459;88;20236;-75
2020/12/12 13:21:05;;;;;;;18.35;10.18;;;7.90;99.90;;;;;;6738548;88;20608;-73
2020/12/12 13:31:07;;;;;;;21.87;11.30;;;7.90;99.90;;;;;;6732152;88;20166;-73
2020/12/12 13:41:07;;;;;;;17.05;9.75;;;8.10;99.90;;;;;;6737651;88;20784;-77
2020/12/12 13:51:08;;;;;;;20.62;10.73;;;8.10;99.90;;;;;;6743753;88;20211;-76
2020/12/12 14:01:08;;;;;;;21.35;10.70;;;8.30;99.90;;;;;;6738342;88;20606;-77
2020/12/12 14:21:55;;;;;;;16.08;8.82;;;8.60;99.90;;;;;;6749604;88;20690;-78
2020/12/12 14:31:55;;;;;;;;;;;8.40;99.90;;;;;;6762744;88;20187;-78
2020/12/12 14:41:56;;;;;;;18.08;9.75;;;8.10;99.90;;;;;;6761597;88;20590;-76
2020/12/12 14:51:56;;;;;;;19.23;10.25;;;7.90;99.90;;;;;;6735724;88;20189;-75
2020/12/12 15:01:57;;;;;;;21.37;10.53;;;7.70;99.90;;;;;;6746378;88;20240;-76
2020/12/12 15:11:57;;;;;;;23.48;11.77;;;7.70;99.90;;;;;;6734310;88;21019;-75
2020/12/12 15:21:58;;;;;;;24.25;10.77;;;7.60;99.90;;;;;;6740322;88;20173;-77
2020/12/12 15:31:58;;;;;;;19.70;10.43;;;7.60;99.90;;;;;;6740349;88;20192;-77
2020/12/12 15:41:59;;;;;;;19.30;9.88;;;7.60;99.90;;;;;;6735804;88;20197;-76
2020/12/12 15:52:00;;;;;;;20.12;10.25;;;7.70;99.90;;;;;;6731753;88;20197;-75
2020/12/12 16:02:00;;;;;;;19.73;9.68;;;7.70;99.90;;;;;;6733542;88;20181;-75
2020/12/12 16:12:01;;;;;;;18.77;10.35;;;7.70;99.90;;;;;;6736630;88;20204;-76
2020/12/12 16:22:01;;;;;;;19.83;10.65;;;7.80;99.90;;;;;;6744545;88;20247;-77
2020/12/12 16:32:02;;;;;;;22.55;11.07;;;7.70;99.90;;;;;;6738653;88;20285;-76
2020/12/12 16:42:02;;;;;;;22.93;12.10;;;7.70;99.90;;;;;;6738649;88;20482;-77
2020/12/12 16:52:04;;;;;;;20.40;10.48;;;7.60;99.90;;;;;;6747099;88;20550;-78
2020/12/12 17:02:05;;;;;;;24.33;13.82;;;7.50;99.90;;;;;;6739377;88;20199;-76
2020/12/12 17:12:06;;;;;;;27.98;15.40;;;7.40;99.90;;;;;;6742708;88;20192;-77
2020/12/12 17:22:09;;;;;;;36.33;17.23;;;7.30;99.90;;;;;;6739032;88;21073;-75
2020/12/12 17:32:10;;;;;;;24.08;12.43;;;7.30;99.90;;;;;;6729847;88;20307;-75
2020/12/12 17:42:11;;;;;;;25.60;13.38;;;7.40;99.90;;;;;;6741319;88;20184;-77
2020/12/12 17:52:11;;;;;;;24.60;12.02;;;7.30;99.90;;;;;;6747631;88;20944;-74
2020/12/12 18:02:12;;;;;;;23.92;13.40;;;7.30;99.90;;;;;;6741958;88;20299;-77
2020/12/12 18:12:12;;;;;;;27.90;13.30;;;7.40;99.90;;;;;;6741717;88;20238;-77
2020/12/12 18:22:13;;;;;;;23.38;12.98;;;7.30;99.90;;;;;;6738725;88;20310;-77
2020/12/12 18:32:14;;;;;;;27.98;14.00;;;7.30;99.90;;;;;;6736870;88;20214;-77
2020/12/12 18:42:14;;;;;;;27.73;13.55;;;7.30;99.90;;;;;;6736615;88;20219;-78
2020/12/12 18:52:17;;;;;;;27.58;13.73;;;7.30;99.90;;;;;;6732571;88;20198;-77
2020/12/12 19:02:23;;;;;;;27.70;14.52;;;7.30;99.90;;;;;;6730756;88;20201;-75
2020/12/12 19:12:23;;;;;;;27.37;14.33;;;7.40;99.90;;;;;;6726550;88;20211;-73
2020/12/12 19:22:24;;;;;;;23.12;13.25;;;7.40;99.90;;;;;;6732458;88;20233;-76
2020/12/12 19:32:25;;;;;;;23.10;12.63;;;7.50;99.90;;;;;;6736256;88;20189;-76
2020/12/12 19:42:26;;;;;;;22.62;12.73;;;7.60;99.90;;;;;;6739980;88;20627;-76
2020/12/12 19:52:27;;;;;;;30.33;14.15;;;7.40;99.90;;;;;;6734009;88;20216;-76
2020/12/12 20:02:27;;;;;;;24.00;13.15;;;7.50;99.90;;;;;;6742417;88;20695;-77
2020/12/12 20:12:28;;;;;;;25.70;12.70;;;7.40;99.90;;;;;;6746656;88;20181;-77
2020/12/12 20:22:28;;;;;;;21.08;12.18;;;7.50;99.90;;;;;;6744202;88;20721;-76
2020/12/12 20:32:29;;;;;;;20.00;11.45;;;7.50;99.90;;;;;;6748509;88;20205;-76
2020/12/12 20:42:29;;;;;;;23.05;12.27;;;7.60;99.90;;;;;;6739658;88;20339;-77
2020/12/12 20:52:30;;;;;;;21.55;11.93;;;7.50;99.90;;;;;;6745234;88;20206;-76
2020/12/12 21:02:30;;;;;;;20.85;11.98;;;7.40;99.90;;;;;;6742307;88;20688;-74
2020/12/12 21:12:31;;;;;;;21.62;12.13;;;7.50;99.90;;;;;;6726513;88;20251;-75
2020/12/12 21:22:32;;;;;;;24.17;12.80;;;7.40;99.90;;;;;;6724186;88;20237;-75
2020/12/12 21:32:34;;;;;;;21.15;12.25;;;7.40;99.90;;;;;;6723495;88;20286;-75
2020/12/12 21:42:37;;;;;;;23.98;12.18;;;7.30;99.90;;;;;;6732303;88;20208;-76
2020/12/12 21:52:40;;;;;;;18.83;11.18;;;7.40;99.90;;;;;;6730373;88;20189;-75
2020/12/12 22:02:43;;;;;;;18.48;11.18;;;7.30;99.90;;;;;;6733703;88;20192;-76
2020/12/12 22:12:45;;;;;;;18.20;11.20;;;7.30;99.90;;;;;;6732161;88;20271;-76
2020/12/12 22:22:53;;;;;;;19.62;11.02;;;7.20;99.90;;;;;;6737592;88;20193;-77
2020/12/12 22:32:54;;;;;;;19.87;10.50;;;7.20;99.90;;;;;;6741014;88;20213;-76
2020/12/12 22:42:54;;;;;;;20.67;11.10;;;7.30;99.90;;;;;;6739427;88;20279;-75
2020/12/12 22:52:55;;;;;;;21.58;12.32;;;7.30;99.90;;;;;;6738913;88;20188;-76
2020/12/12 23:03:00;;;;;;;19.70;11.55;;;7.20;99.90;;;;;;6755972;88;20726;-75
2020/12/12 23:13:01;;;;;;;19.87;11.20;;;7.20;99.90;;;;;;6755358;88;20187;-76
2020/12/12 23:23:02;;;;;;;20.12;11.15;;;7.30;99.90;;;;;;6757919;88;20772;-75
2020/12/12 23:33:02;;;;;;;20.27;11.68;;;7.20;99.90;;;;;;6757133;88;20687;-75
2020/12/12 23:43:04;;;;;;;21.20;11.85;;;7.20;99.90;;;;;;6758640;88;20238;-76
2020/12/12 23:53:05;;;;;;;20.15;11.75;;;7.30;99.90;;;;;;6755763;88;20223;-75
